Schoonebeek, Netherlands
Current Conditions -  °F | °C
As of 3:25 AM on Saturday 29 Nov 2014 (Local Time) from EHGG Reporting Station
Haze Haze  
Wind Chill: -2°   Ceiling: 1400
Heat Index:   Visibility: 3mi
Dew Point:   Wind: 12mph
Humidity: 87%   Direction: 90°E
Pressure: 30"   Gusts: NA
Location:  52.66°N, 6.88°E
Report Text: EHGG 290225Z AUTO 09010KT 060V120 5000 BR BKN014 02/M00 Q1016
Loading
Personal Weather Stations






























Interactive Weather Map New forecast layout! Learn more

10-Day Weather Forecast

Advertisements
Track Severe Weather on mobile